sensor_id;sensor_type;location;lat;lon;timestamp;pressure;altitude;pressure_sealevel;temperature;humidity
2681;BME280;1350;42.134;24.708;2024-01-10T00:01:16;100706.84;;;0.50;100.00
2681;BME280;1350;42.134;24.708;2024-01-10T00:03:43;100703.38;;;0.59;100.00
2681;BME280;1350;42.134;24.708;2024-01-10T00:06:12;100711.13;;;0.44;100.00
2681;BME280;1350;42.134;24.708;2024-01-10T00:08:39;100720.84;;;0.66;100.00
2681;BME280;1350;42.134;24.708;2024-01-10T00:11:06;100713.03;;;0.69;100.00
2681;BME280;1350;42.134;24.708;2024-01-10T00:13:33;100717.34;;;0.64;100.00
2681;BME280;1350;42.134;24.708;2024-01-10T00:16:00;100716.47;;;0.68;100.00
2681;BME280;1350;42.134;24.708;2024-01-10T00:18:27;100712.13;;;0.65;100.00
2681;BME280;1350;42.134;24.708;2024-01-10T00:20:54;100720.88;;;0.75;100.00
2681;BME280;1350;42.134;24.708;2024-01-10T00:23:23;100717.41;;;0.79;100.00
2681;BME280;1350;42.134;24.708;2024-01-10T00:25:50;100724.38;;;0.72;100.00
2681;BME280;1350;42.134;24.708;2024-01-10T00:28:19;100725.25;;;0.77;100.00
2681;BME280;1350;42.134;24.708;2024-01-10T00:30:46;100729.63;;;0.83;100.00
2681;BME280;1350;42.134;24.708;2024-01-10T00:33:15;100731.38;;;0.87;100.00
2681;BME280;1350;42.134;24.708;2024-01-10T00:35:42;100730.56;;;0.97;100.00
2681;BME280;1350;42.134;24.708;2024-01-10T00:38:10;100727.97;;;0.97;100.00
2681;BME280;1350;42.134;24.708;2024-01-10T00:40:38;100727.84;;;0.80;100.00
2681;BME280;1350;42.134;24.708;2024-01-10T00:43:05;100733.97;;;0.85;100.00
2681;BME280;1350;42.134;24.708;2024-01-10T00:45:32;100734.81;;;0.75;100.00
2681;BME280;1350;42.134;24.708;2024-01-10T00:47:59;100733.94;;;0.78;100.00
2681;BME280;1350;42.134;24.708;2024-01-10T00:50:26;100740.03;;;0.77;100.00
2681;BME280;1350;42.134;24.708;2024-01-10T00:52:53;100730.50;;;0.86;100.00
2681;BME280;1350;42.134;24.708;2024-01-10T00:55:20;100731.41;;;0.91;100.00
2681;BME280;1350;42.134;24.708;2024-01-10T00:57:49;100741.81;;;0.82;100.00
2681;BME280;1350;42.134;24.708;2024-01-10T01:00:16;100738.25;;;0.74;100.00
2681;BME280;1350;42.134;24.708;2024-01-10T01:02:43;100747.88;;;0.80;100.00
2681;BME280;1350;42.134;24.708;2024-01-10T01:05:10;100740.94;;;0.89;100.00
2681;BME280;1350;42.134;24.708;2024-01-10T01:07:37;100740.94;;;0.83;100.00
2681;BME280;1350;42.134;24.708;2024-01-10T01:10:05;100734.88;;;0.87;100.00
2681;BME280;1350;42.134;24.708;2024-01-10T01:12:34;100735.72;;;0.86;100.00
2681;BME280;1350;42.134;24.708;2024-01-10T01:15:03;100740.06;;;0.78;100.00
2681;BME280;1350;42.134;24.708;2024-01-10T01:17:30;100736.50;;;0.69;100.00
2681;BME280;1350;42.134;24.708;2024-01-10T01:19:57;100739.16;;;0.76;100.00
2681;BME280;1350;42.134;24.708;2024-01-10T01:22:25;100729.66;;;0.87;100.00
2681;BME280;1350;42.134;24.708;2024-01-10T01:24:52;100739.19;;;0.82;100.00
2681;BME280;1350;42.134;24.708;2024-01-10T01:27:19;100732.22;;;0.81;100.00
2681;BME280;1350;42.134;24.708;2024-01-10T01:29:46;100740.94;;;0.83;100.00
2681;BME280;1350;42.134;24.708;2024-01-10T01:32:14;100731.34;;;0.81;100.00
2681;BME280;1350;42.134;24.708;2024-01-10T01:34:41;100734.88;;;0.87;100.00
2681;BME280;1350;42.134;24.708;2024-01-10T01:37:08;100732.22;;;0.81;100.00
2681;BME280;1350;42.134;24.708;2024-01-10T01:39:35;100732.22;;;0.80;100.00
2681;BME280;1350;42.134;24.708;2024-01-10T01:42:03;100738.25;;;0.70;100.00
2681;BME280;1350;42.134;24.708;2024-01-10T01:44:30;100738.34;;;0.88;100.00
2681;BME280;1350;42.134;24.708;2024-01-10T01:46:58;100745.34;;;0.95;100.00
2681;BME280;1350;42.134;24.708;2024-01-10T01:49:27;100747.97;;;0.96;100.00
2681;BME280;1350;42.134;24.708;2024-01-10T01:51:55;100744.47;;;0.94;100.00
2681;BME280;1350;42.134;24.708;2024-01-10T01:54:23;100742.75;;;0.96;100.00
2681;BME280;1350;42.134;24.708;2024-01-10T01:56:50;100734.06;;;1.00;100.00
2681;BME280;1350;42.134;24.708;2024-01-10T01:59:17;100734.91;;;0.95;100.00
2681;BME280;1350;42.134;24.708;2024-01-10T02:01:45;100734.03;;;0.93;100.00
2681;BME280;1350;42.134;24.708;2024-01-10T02:04:12;100719.19;;;0.81;100.00
2681;BME280;1350;42.134;24.708;2024-01-10T02:06:41;100720.91;;;0.81;100.00
2681;BME280;1350;42.134;24.708;2024-01-10T02:09:08;100727.81;;;0.71;100.00
2681;BME280;1350;42.134;24.708;2024-01-10T02:11:35;100725.34;;;0.97;100.00
2681;BME280;1350;42.134;24.708;2024-01-10T02:14:02;100720.16;;;1.01;100.00
2681;BME280;1350;42.134;24.708;2024-01-10T02:16:29;100719.22;;;0.90;100.00
2681;BME280;1350;42.134;24.708;2024-01-10T02:18:56;100723.59;;;1.00;100.00
2681;BME280;1350;42.134;24.708;2024-01-10T02:21:23;100716.66;;;1.04;100.00
2681;BME280;1350;42.134;24.708;2024-01-10T02:23:52;100720.13;;;0.98;100.00
2681;BME280;1350;42.134;24.708;2024-01-10T02:26:20;100720.16;;;1.01;100.00
2681;BME280;1350;42.134;24.708;2024-01-10T02:28:47;100723.59;;;0.97;100.00
2681;BME280;1350;42.134;24.708;2024-01-10T02:31:14;100721.84;;;0.95;100.00
2681;BME280;1350;42.134;24.708;2024-01-10T02:33:41;100716.59;;;0.86;100.00
2681;BME280;1350;42.134;24.708;2024-01-10T02:36:08;100714.00;;;0.89;100.00
2681;BME280;1350;42.134;24.708;2024-01-10T02:38:35;100713.09;;;0.85;100.00
2681;BME280;1350;42.134;24.708;2024-01-10T02:41:02;100716.59;;;0.87;100.00
2681;BME280;1350;42.134;24.708;2024-01-10T02:43:30;100707.06;;;0.94;100.00
2681;BME280;1350;42.134;24.708;2024-01-10T02:45:57;100714.91;;;0.97;100.00
2681;BME280;1350;42.134;24.708;2024-01-10T02:48:25;100720.09;;;0.92;100.00
2681;BME280;1350;42.134;24.708;2024-01-10T02:50:52;100713.13;;;0.88;100.00
2681;BME280;1350;42.134;24.708;2024-01-10T02:53:20;100714.84;;;0.89;100.00
2681;BME280;1350;42.134;24.708;2024-01-10T02:55:47;100712.22;;;0.88;100.00
2681;BME280;1350;42.134;24.708;2024-01-10T02:58:15;100710.50;;;0.85;100.00
2681;BME280;1350;42.134;24.708;2024-01-10T03:00:43;100719.19;;;0.81;100.00
2681;BME280;1350;42.134;24.708;2024-01-10T03:03:10;100708.78;;;0.86;100.00
2681;BME280;1350;42.134;24.708;2024-01-10T03:05:37;100722.75;;;0.97;100.00
2681;BME280;1350;42.134;24.708;2024-01-10T03:08:05;100726.19;;;0.93;100.00
2681;BME280;1350;42.134;24.708;2024-01-10T03:10:32;100723.59;;;1.00;100.00
2681;BME280;1350;42.134;24.708;2024-01-10T03:12:59;100722.75;;;0.97;100.00
2681;BME280;1350;42.134;24.708;2024-01-10T03:15:26;100712.34;;;1.09;100.00
2681;BME280;1350;42.134;24.708;2024-01-10T03:17:54;100708.78;;;0.90;100.00
2681;BME280;1350;42.134;24.708;2024-01-10T03:20:21;100710.56;;;1.02;100.00
2681;BME280;1350;42.134;24.708;2024-01-10T03:22:48;100706.22;;;1.05;100.00
2681;BME280;1350;42.134;24.708;2024-01-10T03:25:15;100707.97;;;1.05;100.00
2681;BME280;1350;42.134;24.708;2024-01-10T03:27:42;100707.94;;;1.03;100.00
2681;BME280;1350;42.134;24.708;2024-01-10T03:30:10;100708.84;;;1.07;100.00
2681;BME280;1350;42.134;24.708;2024-01-10T03:32:37;100709.69;;;0.97;100.00
2681;BME280;1350;42.134;24.708;2024-01-10T03:35:06;100707.09;;;1.00;100.00
2681;BME280;1350;42.134;24.708;2024-01-10T03:37:33;100710.50;;;0.90;100.00
2681;BME280;1350;42.134;24.708;2024-01-10T03:40:01;100710.56;;;1.00;100.00
2681;BME280;1350;42.134;24.708;2024-01-10T03:42:28;100711.41;;;0.96;100.00
2681;BME280;1350;42.134;24.708;2024-01-10T03:44:55;100719.25;;;0.95;100.00
2681;BME280;1350;42.134;24.708;2024-01-10T03:47:22;100709.69;;;0.94;100.00
2681;BME280;1350;42.134;24.708;2024-01-10T03:49:49;100704.47;;;0.98;100.00
2681;BME280;1350;42.134;24.708;2024-01-10T03:52:17;100707.09;;;1.01;100.00
2681;BME280;1350;42.134;24.708;2024-01-10T03:54:44;100709.69;;;1.00;100.00
2681;BME280;1350;42.134;24.708;2024-01-10T03:57:11;100709.63;;;0.91;100.00
2681;BME280;1350;42.134;24.708;2024-01-10T03:59:38;100707.94;;;1.00;100.00
2681;BME280;1350;42.134;24.708;2024-01-10T04:02:05;100709.72;;;1.04;100.00
2681;BME280;1350;42.134;24.708;2024-01-10T04:04:32;100710.56;;;1.06;100.00
2681;BME280;1350;42.134;24.708;2024-01-10T04:06:59;100711.44;;;1.04;100.00
2681;BME280;1350;42.134;24.708;2024-01-10T04:09:27;100718.38;;;0.94;100.00
2681;BME280;1350;42.134;24.708;2024-01-10T04:11:54;100717.47;;;0.89;100.00
2681;BME280;1350;42.134;24.708;2024-01-10T04:14:21;100711.44;;;0.99;100.00
2681;BME280;1350;42.134;24.708;2024-01-10T04:16:48;100723.72;;;1.21;100.00
2681;BME280;1350;42.134;24.708;2024-01-10T04:19:15;100720.22;;;1.22;100.00
2681;BME280;1350;42.134;24.708;2024-01-10T04:21:42;100725.41;;;1.15;100.00
2681;BME280;1350;42.134;24.708;2024-01-10T04:24:09;100720.22;;;1.18;100.00
2681;BME280;1350;42.134;24.708;2024-01-10T04:26:37;100716.69;;;1.13;100.00
2681;BME280;1350;42.134;24.708;2024-01-10T04:29:04;100723.72;;;1.24;100.00
2681;BME280;1350;42.134;24.708;2024-01-10T04:31:31;100723.72;;;1.29;100.00
2681;BME280;1350;42.134;24.708;2024-01-10T04:33:58;100725.44;;;1.22;100.00
2681;BME280;1350;42.134;24.708;2024-01-10T04:36:25;100731.56;;;1.26;100.00
2681;BME280;1350;42.134;24.708;2024-01-10T04:38:52;100740.25;;;1.32;100.00
2681;BME280;1350;42.134;24.708;2024-01-10T04:41:19;100737.66;;;1.35;100.00
2681;BME280;1350;42.134;24.708;2024-01-10T04:43:47;100741.16;;;1.33;100.00
2681;BME280;1350;42.134;24.708;2024-01-10T04:46:15;100740.25;;;1.28;100.00
2681;BME280;1350;42.134;24.708;2024-01-10T04:48:42;100746.34;;;1.28;100.00
2681;BME280;1350;42.134;24.708;2024-01-10T04:51:10;100749.00;;;1.34;100.00
2681;BME280;1350;42.134;24.708;2024-01-10T04:53:37;100757.69;;;1.29;100.00
2681;BME280;1350;42.134;24.708;2024-01-10T04:56:05;100756.81;;;1.30;100.00
2681;BME280;1350;42.134;24.708;2024-01-10T04:58:32;100757.69;;;1.30;100.00
2681;BME280;1350;42.134;24.708;2024-01-10T05:01:01;100763.75;;;1.23;100.00
2681;BME280;1350;42.134;24.708;2024-01-10T05:03:28;100759.38;;;1.15;100.00
2681;BME280;1350;42.134;24.708;2024-01-10T05:05:55;100760.25;;;1.17;100.00
2681;BME280;1350;42.134;24.708;2024-01-10T05:08:24;100768.94;;;1.20;100.00
2681;BME280;1350;42.134;24.708;2024-01-10T05:10:51;100765.50;;;1.24;100.00
2681;BME280;1350;42.134;24.708;2024-01-10T05:13:18;100758.50;;;1.20;100.00
2681;BME280;1350;42.134;24.708;2024-01-10T05:15:45;100775.06;;;1.22;100.00
2681;BME280;1350;42.134;24.708;2024-01-10T05:18:14;100772.44;;;1.16;100.00
2681;BME280;1350;42.134;24.708;2024-01-10T05:20:42;100776.78;;;1.22;100.00
2681;BME280;1350;42.134;24.708;2024-01-10T05:23:09;100778.56;;;1.23;100.00
2681;BME280;1350;42.134;24.708;2024-01-10T05:25:36;100770.72;;;1.20;100.00
2681;BME280;1350;42.134;24.708;2024-01-10T05:28:03;100781.09;;;1.09;100.00
2681;BME280;1350;42.134;24.708;2024-01-10T05:30:30;100781.06;;;1.06;100.00
2681;BME280;1350;42.134;24.708;2024-01-10T05:32:57;100788.88;;;1.02;100.00
2681;BME280;1350;42.134;24.708;2024-01-10T05:35:26;100784.56;;;1.05;100.00
2681;BME280;1350;42.134;24.708;2024-01-10T05:37:54;100783.66;;;1.05;100.00
2681;BME280;1350;42.134;24.708;2024-01-10T05:40:21;100794.06;;;0.97;100.00
2681;BME280;1350;42.134;24.708;2024-01-10T05:42:48;100796.69;;;0.97;100.00
2681;BME280;1350;42.134;24.708;2024-01-10T05:45:15;100793.06;;;0.73;100.00
2681;BME280;1350;42.134;24.708;2024-01-10T05:47:43;100783.53;;;0.76;100.00
2681;BME280;1350;42.134;24.708;2024-01-10T05:50:10;100786.13;;;0.73;100.00
2681;BME280;1350;42.134;24.708;2024-01-10T05:52:40;100783.50;;;0.72;100.00
2681;BME280;1350;42.134;24.708;2024-01-10T05:55:08;100780.84;;;0.66;100.00
2681;BME280;1350;42.134;24.708;2024-01-10T05:57:35;100778.22;;;0.61;100.00
2681;BME280;1350;42.134;24.708;2024-01-10T06:00:03;100791.28;;;0.66;100.00
2681;BME280;1350;42.134;24.708;2024-01-10T06:02:35;100793.91;;;0.67;100.00
2681;BME280;1350;42.134;24.708;2024-01-10T06:05:05;100791.31;;;0.72;100.00
2681;BME280;1350;42.134;24.708;2024-01-10T06:07:32;100796.50;;;0.67;100.00
2681;BME280;1350;42.134;24.708;2024-01-10T06:10:01;100801.81;;;0.78;100.00
2681;BME280;1350;42.134;24.708;2024-01-10T06:12:28;100799.22;;;0.81;100.00
2681;BME280;1350;42.134;24.708;2024-01-10T06:14:55;100800.06;;;0.77;100.00
2681;BME280;1350;42.134;24.708;2024-01-10T06:17:23;100810.53;;;0.83;100.00
2681;BME280;1350;42.134;24.708;2024-01-10T06:19:50;100807.94;;;0.84;100.00
2681;BME280;1350;42.134;24.708;2024-01-10T06:22:17;100815.75;;;0.80;100.00
2681;BME280;1350;42.134;24.708;2024-01-10T06:24:50;100815.78;;;0.87;100.00
2681;BME280;1350;42.134;24.708;2024-01-10T06:27:18;100827.94;;;0.85;100.00
2681;BME280;1350;42.134;24.708;2024-01-10T06:29:45;100822.72;;;0.87;100.00
2681;BME280;1350;42.134;24.708;2024-01-10T06:32:12;100834.06;;;0.87;100.00
2681;BME280;1350;42.134;24.708;2024-01-10T06:34:40;100842.69;;;0.80;100.00
2681;BME280;1350;42.134;24.708;2024-01-10T06:37:07;100846.25;;;0.91;100.00
2681;BME280;1350;42.134;24.708;2024-01-10T06:39:37;100840.97;;;0.81;100.00
2681;BME280;1350;42.134;24.708;2024-01-10T06:42:04;100841.91;;;0.92;100.00
2681;BME280;1350;42.134;24.708;2024-01-10T06:44:35;100845.44;;;0.97;100.00
2681;BME280;1350;42.134;24.708;2024-01-10T06:47:02;100842.84;;;0.98;100.00
2681;BME280;1350;42.134;24.708;2024-01-10T06:49:29;100850.69;;;1.04;100.00
2681;BME280;1350;42.134;24.708;2024-01-10T06:51:56;100849.84;;;1.11;100.00
2681;BME280;1350;42.134;24.708;2024-01-10T06:54:24;100846.34;;;1.09;100.00
2681;BME280;1350;42.134;24.708;2024-01-10T06:56:51;100856.00;;;1.21;100.00
2681;BME280;1350;42.134;24.708;2024-01-10T06:59:18;100853.38;;;1.13;100.00
2681;BME280;1350;42.134;24.708;2024-01-10T07:01:51;100852.53;;;1.22;100.00
2681;BME280;1350;42.134;24.708;2024-01-10T07:04:18;100859.56;;;1.32;100.00
2681;BME280;1350;42.134;24.708;2024-01-10T07:06:47;100856.13;;;1.46;100.00
2681;BME280;1350;42.134;24.708;2024-01-10T07:09:14;100864.88;;;1.48;100.00
2681;BME280;1350;42.134;24.708;2024-01-10T07:11:45;100857.94;;;1.56;100.00
2681;BME280;1350;42.134;24.708;2024-01-10T07:14:13;100862.31;;;1.68;100.00
2681;BME280;1350;42.134;24.708;2024-01-10T07:16:40;100858.03;;;1.87;100.00
2681;BME280;1350;42.134;24.708;2024-01-10T07:19:09;100869.44;;;2.19;100.00
2681;BME280;1350;42.134;24.708;2024-01-10T07:21:39;100874.69;;;2.29;100.00
2681;BME280;1350;42.134;24.708;2024-01-10T07:24:07;100874.75;;;2.53;100.00
2681;BME280;1350;42.134;24.708;2024-01-10T07:26:36;100873.00;;;2.66;100.00
2681;BME280;1350;42.134;24.708;2024-01-10T07:29:03;100883.47;;;2.70;100.00
2681;BME280;1350;42.134;24.708;2024-01-10T07:31:33;100883.47;;;2.66;100.00
2681;BME280;1350;42.134;24.708;2024-01-10T07:34:00;100882.56;;;3.03;100.00
2681;BME280;1350;42.134;24.708;2024-01-10T07:36:31;100886.94;;;3.07;100.00
2681;BME280;1350;42.134;24.708;2024-01-10T07:38:59;100895.59;;;3.43;100.00
2681;BME280;1350;42.134;24.708;2024-01-10T07:41:26;100891.81;;;4.14;100.00
2681;BME280;1350;42.134;24.708;2024-01-10T07:43:53;100900.13;;;4.80;100.00
2681;BME280;1350;42.134;24.708;2024-01-10T07:46:20;100895.19;;;5.37;100.00
2681;BME280;1350;42.134;24.708;2024-01-10T07:48:48;100895.66;;;5.75;100.00
2681;BME280;1350;42.134;24.708;2024-01-10T07:51:15;100895.50;;;5.90;94.94
2681;BME280;1350;42.134;24.708;2024-01-10T07:53:44;100903.22;;;6.05;94.04
2681;BME280;1350;42.134;24.708;2024-01-10T07:56:11;100905.94;;;5.97;90.27
2681;BME280;1350;42.134;24.708;2024-01-10T07:58:39;100897.31;;;5.86;90.20
2681;BME280;1350;42.134;24.708;2024-01-10T08:01:06;100905.25;;;5.79;90.59
2681;BME280;1350;42.134;24.708;2024-01-10T08:03:36;100912.44;;;5.65;90.71
2681;BME280;1350;42.134;24.708;2024-01-10T08:06:03;100908.63;;;5.93;90.15
2681;BME280;1350;42.134;24.708;2024-01-10T08:08:31;100906.75;;;6.02;88.90
2681;BME280;1350;42.134;24.708;2024-01-10T08:11:00;100901.34;;;6.14;88.89
2681;BME280;1350;42.134;24.708;2024-01-10T08:13:26;100907.25;;;6.30;88.56
2681;BME280;1350;42.134;24.708;2024-01-10T08:15:54;100910.50;;;6.48;87.35
2681;BME280;1350;42.134;24.708;2024-01-10T08:18:21;100907.88;;;6.48;88.67
2681;BME280;1350;42.134;24.708;2024-01-10T08:20:48;100909.59;;;6.51;87.63
2681;BME280;1350;42.134;24.708;2024-01-10T08:23:15;100906.56;;;6.75;87.16
2681;BME280;1350;42.134;24.708;2024-01-10T08:25:42;100900.50;;;6.71;86.17
2681;BME280;1350;42.134;24.708;2024-01-10T08:28:11;100902.75;;;6.94;84.94
2681;BME280;1350;42.134;24.708;2024-01-10T08:30:38;100896.00;;;7.28;86.15
2681;BME280;1350;42.134;24.708;2024-01-10T08:33:05;100903.13;;;7.23;81.60
2681;BME280;1350;42.134;24.708;2024-01-10T08:35:32;100898.94;;;7.12;79.41
2681;BME280;1350;42.134;24.708;2024-01-10T08:37:59;100905.25;;;7.02;79.89
2681;BME280;1350;42.134;24.708;2024-01-10T08:40:28;100906.88;;;7.12;78.24
2681;BME280;1350;42.134;24.708;2024-01-10T08:42:58;100897.13;;;7.14;79.67
2681;BME280;1350;42.134;24.708;2024-01-10T08:45:26;100895.88;;;7.36;77.62
2681;BME280;1350;42.134;24.708;2024-01-10T08:47:54;100898.69;;;7.27;76.26
2681;BME280;1350;42.134;24.708;2024-01-10T08:50:23;100896.88;;;7.29;75.82
2681;BME280;1350;42.134;24.708;2024-01-10T08:52:50;100896.78;;;7.35;76.17
2681;BME280;1350;42.134;24.708;2024-01-10T08:55:17;100898.66;;;7.28;75.22
2681;BME280;1350;42.134;24.708;2024-01-10T08:57:45;100890.16;;;7.11;76.38
2681;BME280;1350;42.134;24.708;2024-01-10T09:00:15;100888.13;;;6.75;79.02
2681;BME280;1350;42.134;24.708;2024-01-10T09:02:43;100899.03;;;6.52;81.86
2681;BME280;1350;42.134;24.708;2024-01-10T09:05:10;100893.63;;;5.99;83.96
2681;BME280;1350;42.134;24.708;2024-01-10T09:07:37;100891.66;;;5.42;88.20
2681;BME280;1350;42.134;24.708;2024-01-10T09:10:05;100892.44;;;5.52;88.83
2681;BME280;1350;42.134;24.708;2024-01-10T09:12:33;100891.19;;;5.01;89.50
2681;BME280;1350;42.134;24.708;2024-01-10T09:15:00;100882.63;;;4.78;93.33
2681;BME280;1350;42.134;24.708;2024-01-10T09:17:28;100885.94;;;4.99;94.48
2681;BME280;1350;42.134;24.708;2024-01-10T09:19:56;100885.69;;;5.25;92.64
2681;BME280;1350;42.134;24.708;2024-01-10T09:22:23;100879.59;;;5.21;91.91
2681;BME280;1350;42.134;24.708;2024-01-10T09:24:50;100883.56;;;5.60;91.31
2681;BME280;1350;42.134;24.708;2024-01-10T09:27:17;100881.75;;;5.65;90.41
2681;BME280;1350;42.134;24.708;2024-01-10T09:29:44;100881.09;;;6.19;90.89
2681;BME280;1350;42.134;24.708;2024-01-10T09:32:11;100884.81;;;6.64;87.29
2681;BME280;1350;42.134;24.708;2024-01-10T09:34:38;100873.00;;;7.36;82.80
2681;BME280;1350;42.134;24.708;2024-01-10T09:37:06;100878.84;;;8.37;77.08
2681;BME280;1350;42.134;24.708;2024-01-10T09:39:33;100865.28;;;8.89;70.17
2681;BME280;1350;42.134;24.708;2024-01-10T09:42:00;100864.44;;;9.20;65.54
2681;BME280;1350;42.134;24.708;2024-01-10T09:44:28;100869.56;;;9.26;62.53
2681;BME280;1350;42.134;24.708;2024-01-10T09:46:55;100869.47;;;9.29;61.45
2681;BME280;1350;42.134;24.708;2024-01-10T09:49:22;100872.75;;;9.39;60.42
2681;BME280;1350;42.134;24.708;2024-01-10T09:51:53;100857.84;;;9.67;60.87
2681;BME280;1350;42.134;24.708;2024-01-10T09:54:26;100851.38;;;10.07;58.30
2681;BME280;1350;42.134;24.708;2024-01-10T09:56:53;100847.47;;;10.48;56.51
2681;BME280;1350;42.134;24.708;2024-01-10T09:59:21;100850.03;;;10.51;52.95
2681;BME280;1350;42.134;24.708;2024-01-10T10:01:48;100848.44;;;10.72;52.90
2681;BME280;1350;42.134;24.708;2024-01-10T10:04:15;100839.53;;;10.74;51.91
2681;BME280;1350;42.134;24.708;2024-01-10T10:06:44;100838.91;;;10.92;52.50
2681;BME280;1350;42.134;24.708;2024-01-10T10:09:12;100832.72;;;11.42;51.83
2681;BME280;1350;42.134;24.708;2024-01-10T10:11:40;100833.03;;;11.09;51.45
2681;BME280;1350;42.134;24.708;2024-01-10T10:14:14;100836.09;;;11.23;50.52
2681;BME280;1350;42.134;24.708;2024-01-10T10:16:41;100835.38;;;11.18;50.71
2681;BME280;1350;42.134;24.708;2024-01-10T10:19:08;100829.81;;;10.73;50.88
2681;BME280;1350;42.134;24.708;2024-01-10T10:21:37;100830.59;;;10.51;52.01
2681;BME280;1350;42.134;24.708;2024-01-10T10:24:04;100830.38;;;10.29;51.58
2681;BME280;1350;42.134;24.708;2024-01-10T10:26:33;100829.13;;;10.13;52.35
2681;BME280;1350;42.134;24.708;2024-01-10T10:29:02;100828.19;;;9.85;52.75
2681;BME280;1350;42.134;24.708;2024-01-10T10:31:31;100818.28;;;9.91;52.82
2681;BME280;1350;42.134;24.708;2024-01-10T10:34:00;100810.06;;;9.41;53.31
2681;BME280;1350;42.134;24.708;2024-01-10T10:36:28;100807.47;;;9.39;52.68
2681;BME280;1350;42.134;24.708;2024-01-10T10:38:59;100801.13;;;9.13;54.40
2681;BME280;1350;42.134;24.708;2024-01-10T10:41:30;100806.63;;;9.05;54.80
2681;BME280;1350;42.134;24.708;2024-01-10T10:43:58;100802.25;;;8.71;54.65
2681;BME280;1350;42.134;24.708;2024-01-10T10:46:27;100803.28;;;8.30;56.09
2681;BME280;1350;42.134;24.708;2024-01-10T10:48:59;100803.53;;;7.78;57.08
2681;BME280;1350;42.134;24.708;2024-01-10T10:51:33;100801.97;;;7.27;58.61
2681;BME280;1350;42.134;24.708;2024-01-10T10:54:00;100789.47;;;6.89;58.88
2681;BME280;1350;42.134;24.708;2024-01-10T10:56:32;100793.81;;;6.92;59.40
2681;BME280;1350;42.134;24.708;2024-01-10T10:59:00;100788.88;;;6.74;59.57
2681;BME280;1350;42.134;24.708;2024-01-10T11:01:29;100785.94;;;6.42;61.24
2681;BME280;1350;42.134;24.708;2024-01-10T11:03:58;100785.06;;;6.40;62.46
2681;BME280;1350;42.134;24.708;2024-01-10T11:06:26;100785.41;;;6.19;64.49
2681;BME280;1350;42.134;24.708;2024-01-10T11:08:59;100779.09;;;6.32;65.25
2681;BME280;1350;42.134;24.708;2024-01-10T11:11:38;100773.63;;;6.42;65.74
2681;BME280;1350;42.134;24.708;2024-01-10T11:14:21;100773.88;;;6.79;64.61
2681;BME280;1350;42.134;24.708;2024-01-10T11:17:13;100772.38;;;7.12;63.28
2681;BME280;1350;42.134;24.708;2024-01-10T11:20:04;100763.25;;;7.69;62.31
2681;BME280;1350;42.134;24.708;2024-01-10T11:22:57;100762.03;;;8.21;58.95
2681;BME280;1350;42.134;24.708;2024-01-10T11:25:29;100755.28;;;8.46;57.92
2681;BME280;1350;42.134;24.708;2024-01-10T11:27:57;100754.13;;;9.22;57.24
2681;BME280;1350;42.134;24.708;2024-01-10T11:30:34;100742.94;;;9.72;54.64
2681;BME280;1350;42.134;24.708;2024-01-10T11:33:18;100739.31;;;10.02;54.07
2681;BME280;1350;42.134;24.708;2024-01-10T11:36:06;100747.13;;;10.08;52.16
2681;BME280;1350;42.134;24.708;2024-01-10T11:38:39;100738.13;;;9.85;52.10
2681;BME280;1350;42.134;24.708;2024-01-10T11:41:10;100741.13;;;10.02;52.33
2681;BME280;1350;42.134;24.708;2024-01-10T11:43:37;100740.53;;;9.92;52.37
2681;BME280;1350;42.134;24.708;2024-01-10T11:46:05;100733.25;;;10.28;52.18
2681;BME280;1350;42.134;24.708;2024-01-10T11:48:34;100729.88;;;10.23;52.81
2681;BME280;1350;42.134;24.708;2024-01-10T11:51:05;100732.56;;;10.21;50.51
2681;BME280;1350;42.134;24.708;2024-01-10T11:53:40;100726.59;;;10.15;50.88
2681;BME280;1350;42.134;24.708;2024-01-10T11:56:12;100719.00;;;10.03;49.95
2681;BME280;1350;42.134;24.708;2024-01-10T11:59:01;100722.03;;;9.91;49.98
2681;BME280;1350;42.134;24.708;2024-01-10T12:01:29;100711.97;;;10.02;50.25
2681;BME280;1350;42.134;24.708;2024-01-10T12:03:58;100712.44;;;10.16;49.96
2681;BME280;1350;42.134;24.708;2024-01-10T12:06:25;100707.69;;;10.78;49.87
2681;BME280;1350;42.134;24.708;2024-01-10T12:08:53;100712.16;;;11.00;47.71
2681;BME280;1350;42.134;24.708;2024-01-10T12:11:20;100713.53;;;11.10;47.55
2681;BME280;1350;42.134;24.708;2024-01-10T12:13:47;100708.25;;;11.33;46.81
2681;BME280;1350;42.134;24.708;2024-01-10T12:16:15;100703.69;;;11.37;46.94
2681;BME280;1350;42.134;24.708;2024-01-10T12:18:43;100704.22;;;11.23;46.98
2681;BME280;1350;42.134;24.708;2024-01-10T12:21:11;100702.72;;;10.92;47.53
2681;BME280;1350;42.134;24.708;2024-01-10T12:23:39;100704.63;;;11.13;46.31
2681;BME280;1350;42.134;24.708;2024-01-10T12:26:08;100693.47;;;11.03;45.86
2681;BME280;1350;42.134;24.708;2024-01-10T12:28:38;100695.41;;;10.74;46.51
2681;BME280;1350;42.134;24.708;2024-01-10T12:31:05;100692.59;;;11.03;46.82
2681;BME280;1350;42.134;24.708;2024-01-10T12:33:34;100684.34;;;11.10;46.73
2681;BME280;1350;42.134;24.708;2024-01-10T12:36:06;100697.19;;;11.22;46.11
2681;BME280;1350;42.134;24.708;2024-01-10T12:38:35;100693.41;;;11.05;44.78
2681;BME280;1350;42.134;24.708;2024-01-10T12:41:03;100689.00;;;10.81;45.05
2681;BME280;1350;42.134;24.708;2024-01-10T12:43:30;100687.63;;;10.69;44.67
2681;BME280;1350;42.134;24.708;2024-01-10T12:46:05;100688.06;;;10.31;45.04
2681;BME280;1350;42.134;24.708;2024-01-10T12:48:58;100680.91;;;10.35;45.67
2681;BME280;1350;42.134;24.708;2024-01-10T12:51:27;100681.47;;;9.89;45.91
2681;BME280;1350;42.134;24.708;2024-01-10T12:53:56;100686.31;;;9.18;47.89
2681;BME280;1350;42.134;24.708;2024-01-10T12:56:25;100677.53;;;9.18;49.18
2681;BME280;1350;42.134;24.708;2024-01-10T12:58:52;100682.34;;;9.04;49.66
2681;BME280;1350;42.134;24.708;2024-01-10T13:01:20;100679.31;;;8.54;50.71
2681;BME280;1350;42.134;24.708;2024-01-10T13:03:47;100679.41;;;8.15;50.54
2681;BME280;1350;42.134;24.708;2024-01-10T13:06:15;100679.72;;;8.03;50.88
2681;BME280;1350;42.134;24.708;2024-01-10T13:08:43;100683.59;;;7.90;50.94